Time;durP1;ratioP1;P1;durP2;ratioP2;P2;SDS_P1;SDS_P2;PMS_P1;PMS_P2;Temp;Humidity;BMP_temperature;BMP_pressure;BME280_temperature;BME280_humidity;BME280_pressure;Samples;Min_cycle;Max_cycle;Signal;HPM_P1;HPM_P2
2022/04/12 00:00:23;;;;;;;;;;;;;;;;;;5051990;28;1420;-68
2022/04/12 00:02:48;;;;;;;;;;;;;;;;;;5051612;28;1951;-68
2022/04/12 00:05:14;;;;;;;;;;;;;;;;;;5049809;28;1294;-68
2022/04/12 00:07:40;;;;;;;;;;;;;;;;;;5051959;28;1440;-69
2022/04/12 00:10:05;;;;;;;;;;;;;;;;;;5049828;28;1246;-69
2022/04/12 00:12:30;;;;;;;;;;;;;;;;;;5052251;28;1300;-68
2022/04/12 00:14:55;;;;;;;;;;;;;;;;;;5049389;28;1250;-70
2022/04/12 00:20:05;;;;;;;;;;;;;;;;;;5051740;28;1399;-70
2022/04/12 00:22:30;;;;;;;;;;;;;;;;;;5051543;28;1965;-70
2022/04/12 00:24:55;;;;;;;;;;;;;;;;;;5051550;28;1484;-70
2022/04/12 00:27:20;;;;;;;;;;;;;;;;;;5050420;28;1386;-69
2022/04/12 00:29:46;;;;;;;;;;;;;;;;;;5050920;28;1247;-70
2022/04/12 00:32:11;;;;;;;;;;;;;;;;;;5049528;28;1354;-70
2022/04/12 00:34:37;;;;;;;;;;;;;;;;;;5053285;28;1457;-70
2022/04/12 00:37:02;;;;;;;;;;;;;;;;;;5050291;28;1254;-67
2022/04/12 00:39:27;;;;;;;;;;;;;;;;;;5050824;28;1226;-67
2022/04/12 00:41:52;;;;;;;;;;;;;;;;;;5050479;28;1361;-67
2022/04/12 00:44:18;;;;;;;;;;;;;;;;;;5050953;28;1893;-68
2022/04/12 00:46:43;;;;;;;;;;;;;;;;;;5050747;28;1349;-68
2022/04/12 00:49:08;;;;;;;;;;;;;;;;;;5051946;28;1484;-68
2022/04/12 00:51:33;;;;;;;;;;;;;;;;;;5050634;28;1535;-68
2022/04/12 00:53:59;;;;;;;;;;;;;;;;;;5050507;28;1279;-68
2022/04/12 00:56:24;;;;;;;;;;;;;;;;;;5050827;28;1090;-68
2022/04/12 00:58:50;;;;;;;;;;;;;;;;;;5049807;28;1282;-69
2022/04/12 01:01:15;;;;;;;;;;;;;;;;;;5050789;28;1444;-69
2022/04/12 01:03:40;;;;;;;;;;;;;;;;;;5047952;28;1893;-69
2022/04/12 01:06:06;;;;;;;;;;;;;;;;;;5050070;28;1380;-67
2022/04/12 01:08:31;;;;;;;;;;;;;;;;;;5050695;28;1345;-67
2022/04/12 01:11:04;;;;;;;;;;;;;;;;;;5050226;28;1661;-68
2022/04/12 01:13:29;;;;;;;;;;;;;;;;;;5050879;28;1374;-70
2022/04/12 01:15:54;;;;;;;;;;;;;;;;;;5051666;28;1428;-69
2022/04/12 01:18:19;;;;;;;;;;;;;;;;;;5054231;28;1357;-68
2022/04/12 01:20:44;;;;;;;;;;;;;;;;;;5053037;28;1243;-69
2022/04/12 01:23:22;;;;;;;;;;;;;;;;;;5052757;28;1906;-69
2022/04/12 01:25:47;;;;;;;;;;;;;;;;;;5054667;28;1420;-69
2022/04/12 01:28:12;;;;;;;;;;;;;;;;;;5054691;28;1377;-68
2022/04/12 01:30:37;;;;;;;;;;;;;;;;;;5054138;28;1216;-68
2022/04/12 01:33:04;;;;;;;;;;;;;;;;;;5053868;28;1355;-68
2022/04/12 01:35:29;;;;;;;;;;;;;;;;;;5053739;28;1429;-68
2022/04/12 01:37:54;;;;;;;;;;;;;;;;;;5052473;28;1318;-70
2022/04/12 01:40:20;;;;;;;;;;;;;;;;;;5054540;28;1771;-70
2022/04/12 01:42:45;;;;;;;;;;;;;;;;;;5053087;28;1902;-71
2022/04/12 01:45:10;;;;;;;;;;;;;;;;;;5052732;28;1278;-70
2022/04/12 01:47:36;;;;;;;;;;;;;;;;;;5052688;28;1243;-70
2022/04/12 01:50:01;;;;;;;;;;;;;;;;;;5053565;28;1437;-70
2022/04/12 01:52:26;;;;;;;;;;;;;;;;;;5053542;28;1374;-70
2022/04/12 01:54:51;;;;;;;;;;;;;;;;;;5054226;28;1650;-70
2022/04/12 01:57:17;;;;;;;;;;;;;;;;;;5051739;28;1297;-69
2022/04/12 01:59:42;;;;;;;;;;;;;;;;;;5053420;28;1268;-70
2022/04/12 02:02:08;;;;;;;;;;;;;;;;;;5052748;28;1902;-70
2022/04/12 02:04:33;;;;;;;;;;;;;;;;;;5052916;28;1472;-69
2022/04/12 02:06:58;;;;;;;;;;;;;;;;;;5052750;28;1406;-69
2022/04/12 02:09:23;;;;;;;;;;;;;;;;;;5053442;28;1402;-69
2022/04/12 02:11:49;;;;;;;;;;;;;;;;;;5052081;28;1338;-69
2022/04/12 02:14:14;;;;;;;;;;;;;;;;;;5052077;28;1591;-70
2022/04/12 02:16:39;;;;;;;;;;;;;;;;;;5052088;28;1285;-68
2022/04/12 02:19:04;;;;;;;;;;;;;;;;;;5054966;28;1496;-69
2022/04/12 02:21:29;;;;;;;;;;;;;;;;;;5052790;28;1412;-69
2022/04/12 02:23:55;;;;;;;;;;;;;;;;;;5053239;28;1902;-70
2022/04/12 02:26:20;;;;;;;;;;;;;;;;;;5053062;28;1302;-69
2022/04/12 02:28:45;;;;;;;;;;;;;;;;;;5051279;28;1430;-70
2022/04/12 02:31:10;;;;;;;;;;;;;;;;;;5052887;28;1535;-72
2022/04/12 02:33:35;;;;;;;;;;;;;;;;;;5051875;28;1314;-71
2022/04/12 02:36:01;;;;;;;;;;;;;;;;;;5053650;28;1228;-69
2022/04/12 02:38:26;;;;;;;;;;;;;;;;;;5051982;28;1247;-68
2022/04/12 02:40:51;;;;;;;;;;;;;;;;;;5052499;28;1329;-68
2022/04/12 02:43:17;;;;;;;;;;;;;;;;;;5051030;28;1894;-67
2022/04/12 02:45:42;;;;;;;;;;;;;;;;;;5049952;28;1350;-67
2022/04/12 02:48:08;;;;;;;;;;;;;;;;;;5054416;28;1402;-67
2022/04/12 02:50:34;;;;;;;;;;;;;;;;;;5051888;28;1247;-68
2022/04/12 02:52:59;;;;;;;;;;;;;;;;;;5050922;28;1524;-68
2022/04/12 02:55:24;;;;;;;;;;;;;;;;;;5051506;28;1671;-70
2022/04/12 02:57:49;;;;;;;;;;;;;;;;;;5051707;28;1168;-71
2022/04/12 03:00:15;;;;;;;;;;;;;;;;;;5051028;28;1231;-71
2022/04/12 03:02:40;;;;;;;;;;;;;;;;;;5051543;28;1969;-71
2022/04/12 03:05:05;;;;;;;;;;;;;;;;;;5051311;28;1415;-70
2022/04/12 03:07:31;;;;;;;;;;;;;;;;;;5053315;28;1266;-70
2022/04/12 03:09:56;;;;;;;;;;;;;;;;;;5050788;28;1310;-69
2022/04/12 03:12:21;;;;;;;;;;;;;;;;;;5051831;28;1292;-68
2022/04/12 03:14:46;;;;;;;;;;;;;;;;;;5051694;28;1282;-68
2022/04/12 03:17:12;;;;;;;;;;;;;;;;;;5051980;28;1262;-68
2022/04/12 03:19:37;;;;;;;;;;;;;;;;;;5052290;28;1247;-68
2022/04/12 03:22:02;;;;;;;;;;;;;;;;;;5051113;28;1969;-67
2022/04/12 03:24:30;;;;;;;;;;;;;;;;;;5050506;28;1298;-68
2022/04/12 03:26:56;;;;;;;;;;;;;;;;;;5052617;28;1218;-69
2022/04/12 03:29:22;;;;;;;;;;;;;;;;;;5050837;28;1305;-68
2022/04/12 03:31:47;;;;;;;;;;;;;;;;;;5050291;28;1291;-70
2022/04/12 03:34:12;;;;;;;;;;;;;;;;;;5050770;28;1264;-70
2022/04/12 03:36:38;;;;;;;;;;;;;;;;;;5051917;28;1430;-70
2022/04/12 03:39:04;;;;;;;;;;;;;;;;;;5050496;28;1252;-69
2022/04/12 03:41:30;;;;;;;;;;;;;;;;;;5050806;28;1462;-68
2022/04/12 03:43:55;;;;;;;;;;;;;;;;;;5050908;28;1901;-68
2022/04/12 03:46:20;;;;;;;;;;;;;;;;;;5050843;28;1303;-69
2022/04/12 03:48:45;;;;;;;;;;;;;;;;;;5052025;28;1429;-69
2022/04/12 03:51:12;;;;;;;;;;;;;;;;;;5050923;28;1325;-70
2022/04/12 03:53:37;;;;;;;;;;;;;;;;;;5051034;28;1285;-69
2022/04/12 03:56:03;;;;;;;;;;;;;;;;;;5050400;28;1258;-70
2022/04/12 03:58:28;;;;;;;;;;;;;;;;;;5051337;28;1307;-69
2022/04/12 04:00:53;;;;;;;;;;;;;;;;;;5049721;28;1429;-69
2022/04/12 04:03:18;;;;;;;;;;;;;;;;;;5050242;28;1961;-70
2022/04/12 04:05:44;;;;;;;;;;;;;;;;;;5052306;28;1350;-69
2022/04/12 04:08:10;;;;;;;;;;;;;;;;;;5049530;28;1278;-70
2022/04/12 04:10:35;;;;;;;;;;;;;;;;;;5051712;28;1562;-68
2022/04/12 04:13:01;;;;;;;;;;;;;;;;;;5050347;28;1310;-68
2022/04/12 04:15:26;;;;;;;;;;;;;;;;;;5051414;28;1322;-68
2022/04/12 04:17:51;;;;;;;;;;;;;;;;;;5052226;28;1263;-69
2022/04/12 04:20:17;;;;;;;;;;;;;;;;;;5051606;28;1286;-69
2022/04/12 04:22:43;;;;;;;;;;;;;;;;;;5049739;28;1980;-69
2022/04/12 04:25:09;;;;;;;;;;;;;;;;;;5050372;28;1370;-70
2022/04/12 04:27:35;;;;;;;;;;;;;;;;;;5050474;28;1352;-69
2022/04/12 04:30:00;;;;;;;;;;;;;;;;;;5049886;28;1504;-69
2022/04/12 04:32:25;;;;;;;;;;;;;;;;;;5052203;28;1427;-68
2022/04/12 04:34:50;;;;;;;;;;;;;;;;;;5050863;28;1569;-68
2022/04/12 04:37:16;;;;;;;;;;;;;;;;;;5050593;28;1361;-68
2022/04/12 04:39:41;;;;;;;;;;;;;;;;;;5051236;28;1305;-67
2022/04/12 04:42:06;;;;;;;;;;;;;;;;;;5049959;28;1970;-67
2022/04/12 04:44:31;;;;;;;;;;;;;;;;;;5050244;28;1259;-67
2022/04/12 04:46:57;;;;;;;;;;;;;;;;;;5051220;28;1277;-67
2022/04/12 04:49:22;;;;;;;;;;;;;;;;;;5053445;28;1342;-68
2022/04/12 04:51:47;;;;;;;;;;;;;;;;;;5054370;28;1408;-67
2022/04/12 04:54:12;;;;;;;;;;;;;;;;;;5053092;28;1349;-69
2022/04/12 04:56:38;;;;;;;;;;;;;;;;;;5054338;28;1305;-67
2022/04/12 04:59:03;;;;;;;;;;;;;;;;;;5054807;28;1262;-67
2022/04/12 05:01:28;;;;;;;;;;;;;;;;;;5053229;28;1251;-68
2022/04/12 05:03:54;;;;;;;;;;;;;;;;;;5053691;28;1894;-68
2022/04/12 05:06:20;;;;;;;;;;;;;;;;;;5053499;28;1251;-69
2022/04/12 05:08:46;;;;;;;;;;;;;;;;;;5058226;28;1374;-70
2022/04/12 05:11:11;;;;;;;;;;;;;;;;;;5055998;28;1207;-71
2022/04/12 05:13:36;;;;;;;;;;;;;;;;;;5063400;28;1385;-71
2022/04/12 05:16:01;;;;;;;;;;;;;;;;;;5063054;28;1554;-71
2022/04/12 05:18:27;;;;;;;;;;;;;;;;;;5063403;28;1490;-70
2022/04/12 05:20:52;;;;;;;;;;;;;;;;;;5062404;28;1644;-70
2022/04/12 05:23:17;;;;;;;;;;;;;;;;;;5054842;28;1905;-70
2022/04/12 05:25:42;;;;;;;;;;;;;;;;;;5063428;28;750;-70
2022/04/12 05:28:08;;;;;;;;;;;;;;;;;;5063245;28;989;-70
2022/04/12 05:30:33;;;;;;;;;;;;;;;;;;5063398;28;1122;-70
2022/04/12 05:32:59;;;;;;;;;;;;;;;;;;5063076;28;1506;-70
2022/04/12 05:35:24;;;;;;;;;;;;;;;;;;5063147;28;917;-70
2022/04/12 05:37:53;;;;;;;;;;;;;;;;;;5063194;28;889;-70
2022/04/12 05:40:19;;;;;;;;;;;;;;;;;;5063104;28;1506;-71
2022/04/12 05:42:44;;;;;;;;;;;;;;;;;;5062795;28;1893;-71
2022/04/12 05:45:10;;;;;;;;;;;;;;;;;;5061732;28;1545;-71
2022/04/12 05:47:39;;;;;;;;;;;;;;;;;;5061916;28;957;-71
2022/04/12 05:50:05;;;;;;;;;;;;;;;;;;5061568;28;1537;-69
2022/04/12 05:52:31;;;;;;;;;;;;;;;;;;5062693;28;1360;-70
2022/04/12 05:54:56;;;;;;;;;;;;;;;;;;5063172;28;866;-70
2022/04/12 05:57:22;;;;;;;;;;;;;;;;;;5063062;28;815;-70
2022/04/12 05:59:48;;;;;;;;;;;;;;;;;;5062554;28;1505;-69
2022/04/12 06:02:13;;;;;;;;;;;;;;;;;;5062236;28;2328;-70
2022/04/12 06:04:38;;;;;;;;;;;;;;;;;;5062369;28;824;-70
2022/04/12 06:07:04;;;;;;;;;;;;;;;;;;5062768;28;1005;-70
2022/04/12 06:09:29;;;;;;;;;;;;;;;;;;5062867;28;1037;-70
2022/04/12 06:11:54;;;;;;;;;;;;;;;;;;5062306;28;1467;-70
2022/04/12 06:14:19;;;;;;;;;;;;;;;;;;5062965;28;866;-70
2022/04/12 06:16:44;;;;;;;;;;;;;;;;;;5062706;28;812;-71
2022/04/12 06:19:09;;;;;;;;;;;;;;;;;;5062885;28;1002;-71
2022/04/12 06:21:36;;;;;;;;;;;;;;;;;;5062509;28;1208;-71
2022/04/12 06:24:01;;;;;;;;;;;;;;;;;;5062370;28;1894;-71
2022/04/12 06:26:27;;;;;;;;;;;;;;;;;;5062945;28;1024;-71
2022/04/12 06:28:52;;;;;;;;;;;;;;;;;;5062341;28;1458;-71
2022/04/12 06:31:17;;;;;;;;;;;;;;;;;;5062624;28;989;-71
2022/04/12 06:33:42;;;;;;;;;;;;;;;;;;5061875;28;1533;-71
2022/04/12 06:36:07;;;;;;;;;;;;;;;;;;5062452;28;847;-71
2022/04/12 06:38:32;;;;;;;;;;;;;;;;;;5062346;28;1010;-71
2022/04/12 06:40:58;;;;;;;;;;;;;;;;;;5062202;28;1498;-71
2022/04/12 06:43:23;;;;;;;;;;;;;;;;;;5062051;28;1963;-71
2022/04/12 06:45:48;;;;;;;;;;;;;;;;;;5061004;28;1277;-71
2022/04/12 06:48:13;;;;;;;;;;;;;;;;;;5060991;28;832;-71
2022/04/12 06:50:38;;;;;;;;;;;;;;;;;;5061760;28;1490;-70
2022/04/12 06:53:04;;;;;;;;;;;;;;;;;;5061928;28;1192;-71
2022/04/12 06:55:29;;;;;;;;;;;;;;;;;;5062188;28;827;-71
2022/04/12 06:57:55;;;;;;;;;;;;;;;;;;5062119;28;1025;-71
2022/04/12 07:00:20;;;;;;;;;;;;;;;;;;5061892;28;823;-71
2022/04/12 07:02:48;;;;;;;;;;;;;;;;;;5061809;28;1955;-71
2022/04/12 07:05:14;;;;;;;;;;;;;;;;;;5061964;28;1447;-70
2022/04/12 07:07:40;;;;;;;;;;;;;;;;;;5062009;28;885;-71
2022/04/12 07:10:06;;;;;;;;;;;;;;;;;;5061851;28;1006;-71
2022/04/12 07:12:31;;;;;;;;;;;;;;;;;;5061204;28;1451;-71
2022/04/12 07:14:57;;;;;;;;;;;;;;;;;;5061663;28;1470;-71
2022/04/12 07:17:22;;;;;;;;;;;;;;;;;;5061690;28;1031;-71
2022/04/12 07:19:47;;;;;;;;;;;;;;;;;;5061774;28;994;-71
2022/04/12 07:22:12;;;;;;;;;;;;;;;;;;5061123;28;1898;-71
2022/04/12 07:24:37;;;;;;;;;;;;;;;;;;5061832;28;938;-71
2022/04/12 07:27:03;;;;;;;;;;;;;;;;;;5061643;28;1415;-71
2022/04/12 07:29:29;;;;;;;;;;;;;;;;;;5061602;28;812;-71
2022/04/12 07:31:54;;;;;;;;;;;;;;;;;;5061163;28;1278;-71
2022/04/12 07:34:19;;;;;;;;;;;;;;;;;;5061619;28;799;-71
2022/04/12 07:36:47;;;;;;;;;;;;;;;;;;5061462;28;918;-71
2022/04/12 07:39:16;;;;;;;;;;;;;;;;;;5061762;28;843;-71
2022/04/12 07:41:41;;;;;;;;;;;;;;;;;;5061461;28;1186;-71
2022/04/12 07:44:06;;;;;;;;;;;;;;;;;;5060984;28;1878;-71
2022/04/12 07:46:31;;;;;;;;;;;;;;;;;;5061334;28;907;-71
2022/04/12 07:48:56;;;;;;;;;;;;;;;;;;5061214;28;1009;-71
2022/04/12 07:51:22;;;;;;;;;;;;;;;;;;5061248;28;931;-71
2022/04/12 07:53:47;;;;;;;;;;;;;;;;;;5060910;28;1329;-69
2022/04/12 07:56:12;;;;;;;;;;;;;;;;;;5061293;28;1061;-70
2022/04/12 07:58:37;;;;;;;;;;;;;;;;;;5061041;28;1435;-70
2022/04/12 08:01:02;;;;;;;;;;;;;;;;;;5061112;28;1072;-71
2022/04/12 08:03:28;;;;;;;;;;;;;;;;;;5060784;28;1893;-70
2022/04/12 08:05:53;;;;;;;;;;;;;;;;;;5060907;28;1518;-71
2022/04/12 08:08:18;;;;;;;;;;;;;;;;;;5061242;28;835;-72
2022/04/12 08:10:44;;;;;;;;;;;;;;;;;;5060685;28;1065;-71
2022/04/12 08:13:09;;;;;;;;;;;;;;;;;;5060747;28;1553;-71
2022/04/12 08:15:36;;;;;;;;;;;;;;;;;;5060885;28;831;-71
2022/04/12 08:18:02;;;;;;;;;;;;;;;;;;5060618;28;1431;-71
2022/04/12 08:20:27;;;;;;;;;;;;;;;;;;5060681;28;819;-71
2022/04/12 08:22:52;;;;;;;;;;;;;;;;;;5060594;28;1890;-71
2022/04/12 08:25:17;;;;;;;;;;;;;;;;;;5060665;28;816;-70
2022/04/12 08:27:43;;;;;;;;;;;;;;;;;;5059755;28;1553;-70
2022/04/12 08:30:08;;;;;;;;;;;;;;;;;;5060798;28;827;-70
2022/04/12 08:32:34;;;;;;;;;;;;;;;;;;5060191;28;1463;-70
2022/04/12 08:34:59;;;;;;;;;;;;;;;;;;5060824;28;961;-70
2022/04/12 08:37:24;;;;;;;;;;;;;;;;;;5060727;28;895;-70
2022/04/12 08:39:50;;;;;;;;;;;;;;;;;;5060909;28;848;-70
2022/04/12 08:42:15;;;;;;;;;;;;;;;;;;5060393;28;1953;-71
2022/04/12 08:44:44;;;;;;;;;;;;;;;;;;5060699;28;934;-70
2022/04/12 08:47:09;;;;;;;;;;;;;;;;;;5060321;28;1494;-70
2022/04/12 08:49:35;;;;;;;;;;;;;;;;;;5060396;28;1510;-70
2022/04/12 08:52:01;;;;;;;;;;;;;;;;;;5060128;28;1180;-70
2022/04/12 08:54:27;;;;;;;;;;;;;;;;;;5060500;28;886;-70
2022/04/12 08:56:52;;;;;;;;;;;;;;;;;;5060510;28;878;-70
2022/04/12 08:59:18;;;;;;;;;;;;;;;;;;5060330;28;886;-70
2022/04/12 09:01:46;;;;;;;;;;;;;;;;;;5060306;28;1223;-70
2022/04/12 09:04:11;;;;;;;;;;;;;;;;;;5060168;28;1905;-70
2022/04/12 09:06:55;;;;;;;;;;;;;;;;;;5060187;28;1041;-70
2022/04/12 09:09:22;;;;;;;;;;;;;;;;;;5060187;28;1565;-71
2022/04/12 09:12:08;;;;;;;;;;;;;;;;;;5059830;28;1188;-71
2022/04/12 09:14:36;;;;;;;;;;;;;;;;;;5060236;28;890;-71
2022/04/12 09:17:01;;;;;;;;;;;;;;;;;;5060165;28;1474;-71
2022/04/12 09:19:38;;;;;;;;;;;;;;;;;;5060301;28;901;-71
2022/04/12 09:22:30;;;;;;;;;;;;;;;;;;5059581;28;1455;-71
2022/04/12 09:24:57;;;;;;;;;;;;;;;;;;5059071;28;1495;-71
2022/04/12 09:27:23;;;;;;;;;;;;;;;;;;5060066;28;902;-71
2022/04/12 09:29:50;;;;;;;;;;;;;;;;;;5059946;28;1021;-71
2022/04/12 09:32:18;;;;;;;;;;;;;;;;;;5059584;28;1474;-71
2022/04/12 09:34:44;;;;;;;;;;;;;;;;;;5060008;28;1010;-71
2022/04/12 09:37:20;;;;;;;;;;;;;;;;;;5059924;28;834;-71
2022/04/12 09:39:46;;;;;;;;;;;;;;;;;;5062542;28;1517;-71
2022/04/12 09:42:11;;;;;;;;;;;;;;;;;;5063200;28;1283;-71
2022/04/12 09:44:36;;;;;;;;;;;;;;;;;;5063242;28;1968;-71
2022/04/12 09:47:01;;;;;;;;;;;;;;;;;;5063382;28;903;-71
2022/04/12 09:49:40;;;;;;;;;;;;;;;;;;5063051;28;1518;-71
2022/04/12 09:52:09;;;;;;;;;;;;;;;;;;5062372;28;1455;-72
2022/04/12 09:54:36;;;;;;;;;;;;;;;;;;5063252;28;887;-72
2022/04/12 09:57:03;;;;;;;;;;;;;;;;;;5062981;28;1537;-71
2022/04/12 09:59:32;;;;;;;;;;;;;;;;;;5063087;28;891;-72
2022/04/12 10:01:58;;;;;;;;;;;;;;;;;;5062642;28;1282;-72
2022/04/12 10:04:23;;;;;;;;;;;;;;;;;;5061483;28;1893;-71
2022/04/12 10:06:50;;;;;;;;;;;;;;;;;;5061149;28;1490;-70
2022/04/12 10:09:17;;;;;;;;;;;;;;;;;;5062884;28;942;-71
2022/04/12 10:11:43;;;;;;;;;;;;;;;;;;5062547;28;1291;-71
2022/04/12 10:14:09;;;;;;;;;;;;;;;;;;5062956;28;1498;-71
2022/04/12 10:16:35;;;;;;;;;;;;;;;;;;5062830;28;1103;-71
2022/04/12 10:19:01;;;;;;;;;;;;;;;;;;5062826;28;879;-70
2022/04/12 10:21:26;;;;;;;;;;;;;;;;;;5062592;28;1498;-70
2022/04/12 10:23:56;;;;;;;;;;;;;;;;;;5062228;28;1973;-70
2022/04/12 10:26:22;;;;;;;;;;;;;;;;;;5062789;28;1100;-70
2022/04/12 10:28:54;;;;;;;;;;;;;;;;;;5062685;28;933;-70
2022/04/12 10:31:21;;;;;;;;;;;;;;;;;;5062581;28;1037;-69
2022/04/12 10:34:14;;;;;;;;;;;;;;;;;;5062100;28;1205;-70
2022/04/12 10:36:54;;;;;;;;;;;;;;;;;;5061311;28;1454;-70
2022/04/12 10:39:35;;;;;;;;;;;;;;;;;;5061179;28;1455;-70
2022/04/12 10:42:02;;;;;;;;;;;;;;;;;;5061864;28;1529;-70
2022/04/12 10:44:34;;;;;;;;;;;;;;;;;;5062307;28;1894;-71
2022/04/12 10:47:01;;;;;;;;;;;;;;;;;;5062178;28;1530;-71
2022/04/12 10:49:33;;;;;;;;;;;;;;;;;;5061900;28;855;-70
2022/04/12 10:52:00;;;;;;;;;;;;;;;;;;5061794;28;1223;-70
2022/04/12 10:54:33;;;;;;;;;;;;;;;;;;5062097;28;1627;-70
2022/04/12 10:57:17;;;;;;;;;;;;;;;;;;5062011;28;894;-71
2022/04/12 10:59:52;;;;;;;;;;;;;;;;;;5060869;28;973;-71
2022/04/12 11:02:17;;;;;;;;;;;;;;;;;;5061715;28;1211;-71
2022/04/12 11:04:43;;;;;;;;;;;;;;;;;;5061795;28;1985;-71
2022/04/12 11:07:09;;;;;;;;;;;;;;;;;;5061876;28;1436;-70
2022/04/12 11:09:34;;;;;;;;;;;;;;;;;;5061958;28;1498;-70
2022/04/12 11:12:02;;;;;;;;;;;;;;;;;;5061515;28;1216;-70
2022/04/12 11:14:36;;;;;;;;;;;;;;;;;;5061926;28;866;-70
2022/04/12 11:17:08;;;;;;;;;;;;;;;;;;5061582;28;851;-70
2022/04/12 11:19:54;;;;;;;;;;;;;;;;;;5061747;28;922;-70
2022/04/12 11:22:20;;;;;;;;;;;;;;;;;;5061412;28;1240;-70
2022/04/12 11:25:04;;;;;;;;;;;;;;;;;;5061475;28;1533;-70
2022/04/12 11:27:29;;;;;;;;;;;;;;;;;;5061601;28;1016;-70
2022/04/12 11:29:58;;;;;;;;;;;;;;;;;;5061504;28;891;-70
2022/04/12 11:32:25;;;;;;;;;;;;;;;;;;5061199;28;1450;-70
2022/04/12 11:34:50;;;;;;;;;;;;;;;;;;5061302;28;922;-70
2022/04/12 11:37:16;;;;;;;;;;;;;;;;;;5061331;28;1486;-69
2022/04/12 11:39:43;;;;;;;;;;;;;;;;;;5061327;28;899;-70
2022/04/12 11:42:09;;;;;;;;;;;;;;;;;;5060735;28;1514;-70
2022/04/12 11:44:34;;;;;;;;;;;;;;;;;;5061504;28;1905;-70
2022/04/12 11:47:04;;;;;;;;;;;;;;;;;;5061317;28;832;-70
2022/04/12 11:49:39;;;;;;;;;;;;;;;;;;5061246;28;966;-70
2022/04/12 11:52:09;;;;;;;;;;;;;;;;;;5060881;28;1204;-70
2022/04/12 11:54:34;;;;;;;;;;;;;;;;;;5060889;28;1447;-70
2022/04/12 11:57:01;;;;;;;;;;;;;;;;;;5061282;28;855;-70
2022/04/12 11:59:26;;;;;;;;;;;;;;;;;;5061098;28;934;-70
2022/04/12 12:01:53;;;;;;;;;;;;;;;;;;5059651;28;1184;-70
2022/04/12 12:04:18;;;;;;;;;;;;;;;;;;5061100;28;1901;-70
2022/04/12 12:07:04;;;;;;;;;;;;;;;;;;5061013;28;851;-70
2022/04/12 12:09:29;;;;;;;;;;;;;;;;;;5060986;28;894;-70
2022/04/12 12:12:04;;;;;;;;;;;;;;;;;;5060232;28;1546;-70
2022/04/12 12:14:30;;;;;;;;;;;;;;;;;;5060992;28;839;-70
2022/04/12 12:17:22;;;;;;;;;;;;;;;;;;5061016;28;820;-70
2022/04/12 12:19:48;;;;;;;;;;;;;;;;;;5060078;28;1047;-70
2022/04/12 12:22:13;;;;;;;;;;;;;;;;;;5060306;28;1549;-70
2022/04/12 12:24:55;;;;;;;;;;;;;;;;;;5060407;28;1965;-70
2022/04/12 12:27:27;;;;;;;;;;;;;;;;;;5059169;28;1486;-70
2022/04/12 12:29:52;;;;;;;;;;;;;;;;;;5060656;28;805;-69
2022/04/12 12:32:17;;;;;;;;;;;;;;;;;;5060162;28;1220;-69
2022/04/12 12:34:44;;;;;;;;;;;;;;;;;;5059220;28;1553;-69
2022/04/12 12:37:10;;;;;;;;;;;;;;;;;;5060167;28;1512;-70
2022/04/12 12:39:39;;;;;;;;;;;;;;;;;;5059353;28;1317;-69
2022/04/12 12:42:05;;;;;;;;;;;;;;;;;;5060211;28;1278;-69
2022/04/12 12:44:35;;;;;;;;;;;;;;;;;;5058992;28;1893;-69
2022/04/12 12:47:03;;;;;;;;;;;;;;;;;;5060186;28;1553;-70
2022/04/12 12:49:39;;;;;;;;;;;;;;;;;;5060116;28;1667;-70
2022/04/12 12:52:05;;;;;;;;;;;;;;;;;;5060125;28;1282;-70
2022/04/12 12:54:31;;;;;;;;;;;;;;;;;;5060348;28;882;-70
2022/04/12 12:56:56;;;;;;;;;;;;;;;;;;5060492;28;1394;-70
2022/04/12 12:59:27;;;;;;;;;;;;;;;;;;5060246;28;819;-71
2022/04/12 13:01:53;;;;;;;;;;;;;;;;;;5059855;28;1560;-70
2022/04/12 13:04:23;;;;;;;;;;;;;;;;;;5060309;28;1965;-70
2022/04/12 13:07:16;;;;;;;;;;;;;;;;;;5060563;28;870;-70
2022/04/12 13:09:42;;;;;;;;;;;;;;;;;;5059109;28;1045;-70
2022/04/12 13:12:08;;;;;;;;;;;;;;;;;;5060129;28;1427;-70
2022/04/12 13:14:34;;;;;;;;;;;;;;;;;;5063726;28;874;-70
2022/04/12 13:16:59;;;;;;;;;;;;;;;;;;5063541;28;1474;-70
2022/04/12 13:19:28;;;;;;;;;;;;;;;;;;5063706;28;974;-70
2022/04/12 13:21:54;;;;;;;;;;;;;;;;;;5063327;28;1255;-70
2022/04/12 13:24:20;;;;;;;;;;;;;;;;;;5063824;28;1963;-70
2022/04/12 13:26:45;;;;;;;;;;;;;;;;;;5063446;28;1545;-70
2022/04/12 13:29:10;;;;;;;;;;;;;;;;;;5063386;28;1005;-70
2022/04/12 13:31:35;;;;;;;;;;;;;;;;;;5063470;28;1255;-70
2022/04/12 13:34:00;;;;;;;;;;;;;;;;;;5063114;28;982;-70
2022/04/12 13:36:26;;;;;;;;;;;;;;;;;;5063205;28;1041;-70
2022/04/12 13:38:51;;;;;;;;;;;;;;;;;;5063416;28;998;-70
2022/04/12 13:41:16;;;;;;;;;;;;;;;;;;5061777;28;1550;-70
2022/04/12 13:43:41;;;;;;;;;;;;;;;;;;5062891;28;1901;-70
2022/04/12 13:46:06;;;;;;;;;;;;;;;;;;5063322;28;895;-70
2022/04/12 13:48:34;;;;;;;;;;;;;;;;;;5063222;28;1006;-70
2022/04/12 13:50:59;;;;;;;;;;;;;;;;;;5063185;28;887;-70
2022/04/12 13:53:24;;;;;;;;;;;;;;;;;;5062490;28;1459;-69
2022/04/12 13:55:49;;;;;;;;;;;;;;;;;;5063189;28;815;-70
2022/04/12 13:58:15;;;;;;;;;;;;;;;;;;5063119;28;1045;-70
2022/04/12 14:00:40;;;;;;;;;;;;;;;;;;5063103;28;883;-70
2022/04/12 14:03:06;;;;;;;;;;;;;;;;;;5062486;28;1975;-70
2022/04/12 14:05:31;;;;;;;;;;;;;;;;;;5063100;28;890;-70
2022/04/12 14:07:57;;;;;;;;;;;;;;;;;;5062934;28;1490;-70
2022/04/12 14:10:22;;;;;;;;;;;;;;;;;;5062557;28;1478;-70
2022/04/12 14:12:47;;;;;;;;;;;;;;;;;;5062562;28;1232;-70
2022/04/12 14:15:13;;;;;;;;;;;;;;;;;;5062844;28;918;-70
2022/04/12 14:17:39;;;;;;;;;;;;;;;;;;5062790;28;1049;-70
2022/04/12 14:20:04;;;;;;;;;;;;;;;;;;5061634;28;1194;-70
2022/04/12 14:22:29;;;;;;;;;;;;;;;;;;5062246;28;1894;-70
2022/04/12 14:24:55;;;;;;;;;;;;;;;;;;5061541;28;1534;-70
2022/04/12 14:27:21;;;;;;;;;;;;;;;;;;5062739;28;889;-70
2022/04/12 14:29:46;;;;;;;;;;;;;;;;;;5062729;28;914;-70
2022/04/12 14:32:11;;;;;;;;;;;;;;;;;;5062371;28;1184;-70
2022/04/12 14:34:36;;;;;;;;;;;;;;;;;;5062440;28;804;-70
2022/04/12 14:37:02;;;;;;;;;;;;;;;;;;5061089;28;1404;-70
2022/04/12 14:39:28;;;;;;;;;;;;;;;;;;5062267;28;1491;-70
2022/04/12 14:41:53;;;;;;;;;;;;;;;;;;5056579;28;1324;-70
2022/04/12 14:44:18;;;;;;;;;;;;;;;;;;5062181;28;1957;-70
2022/04/12 14:46:45;;;;;;;;;;;;;;;;;;5062299;28;962;-70
2022/04/12 14:49:11;;;;;;;;;;;;;;;;;;5062414;28;831;-70
2022/04/12 14:51:36;;;;;;;;;;;;;;;;;;5061985;28;1247;-70
2022/04/12 14:54:01;;;;;;;;;;;;;;;;;;5061553;28;1510;-70
2022/04/12 14:56:26;;;;;;;;;;;;;;;;;;5062137;28;969;-70
2022/04/12 14:58:52;;;;;;;;;;;;;;;;;;5062138;28;1595;-70
2022/04/12 15:01:17;;;;;;;;;;;;;;;;;;5062017;28;855;-70
2022/04/12 15:03:42;;;;;;;;;;;;;;;;;;5061771;28;1894;-70
2022/04/12 15:06:07;;;;;;;;;;;;;;;;;;5061716;28;1427;-70
2022/04/12 15:08:33;;;;;;;;;;;;;;;;;;5062008;28;831;-70
2022/04/12 15:10:58;;;;;;;;;;;;;;;;;;5061928;28;874;-70
2022/04/12 15:13:24;;;;;;;;;;;;;;;;;;5061590;28;1275;-70
2022/04/12 15:15:49;;;;;;;;;;;;;;;;;;5060571;28;1046;-70
2022/04/12 15:18:14;;;;;;;;;;;;;;;;;;5061907;28;811;-70
2022/04/12 15:20:39;;;;;;;;;;;;;;;;;;5061662;28;1076;-70
2022/04/12 15:23:05;;;;;;;;;;;;;;;;;;5061054;28;1908;-70
2022/04/12 15:25:30;;;;;;;;;;;;;;;;;;5061692;28;803;-70
2022/04/12 15:27:55;;;;;;;;;;;;;;;;;;5061599;28;891;-70
2022/04/12 15:30:21;;;;;;;;;;;;;;;;;;5061965;28;875;-70
2022/04/12 15:32:46;;;;;;;;;;;;;;;;;;5061483;28;1192;-70
2022/04/12 15:35:11;;;;;;;;;;;;;;;;;;5061324;28;815;-70
2022/04/12 15:37:40;;;;;;;;;;;;;;;;;;5061271;28;1506;-70
2022/04/12 15:40:06;;;;;;;;;;;;;;;;;;5061448;28;997;-70
2022/04/12 15:42:32;;;;;;;;;;;;;;;;;;5060963;28;1943;-70
2022/04/12 15:44:58;;;;;;;;;;;;;;;;;;5061284;28;847;-70
2022/04/12 15:47:23;;;;;;;;;;;;;;;;;;5061275;28;1522;-70
2022/04/12 15:49:48;;;;;;;;;;;;;;;;;;5061100;28;986;-70
2022/04/12 15:52:13;;;;;;;;;;;;;;;;;;5060736;28;1541;-70
2022/04/12 15:54:39;;;;;;;;;;;;;;;;;;5061195;28;854;-70
2022/04/12 15:57:04;;;;;;;;;;;;;;;;;;5067363;28;891;-70
2022/04/12 15:59:29;;;;;;;;;;;;;;;;;;5070731;28;800;-70
2022/04/12 16:01:54;;;;;;;;;;;;;;;;;;5062413;28;1208;-70
2022/04/12 16:04:20;;;;;;;;;;;;;;;;;;5061071;28;1910;-70
2022/04/12 16:06:45;;;;;;;;;;;;;;;;;;5060983;28;998;-70
2022/04/12 16:09:10;;;;;;;;;;;;;;;;;;5061104;28;915;-70
2022/04/12 16:11:35;;;;;;;;;;;;;;;;;;5060586;28;1494;-71
2022/04/12 16:14:01;;;;;;;;;;;;;;;;;;5061079;28;1092;-70
2022/04/12 16:16:28;;;;;;;;;;;;;;;;;;5060769;28;1502;-70
2022/04/12 16:18:53;;;;;;;;;;;;;;;;;;5060649;28;1519;-70
2022/04/12 16:21:18;;;;;;;;;;;;;;;;;;5060720;28;954;-71
2022/04/12 16:23:44;;;;;;;;;;;;;;;;;;5058594;28;1910;-70
2022/04/12 16:26:09;;;;;;;;;;;;;;;;;;5060799;28;1553;-70
2022/04/12 16:28:35;;;;;;;;;;;;;;;;;;5060844;28;827;-70
2022/04/12 16:31:01;;;;;;;;;;;;;;;;;;5060738;28;830;-70
2022/04/12 16:33:26;;;;;;;;;;;;;;;;;;5060324;28;1506;-70
2022/04/12 16:35:51;;;;;;;;;;;;;;;;;;5060697;28;1025;-70
2022/04/12 16:38:17;;;;;;;;;;;;;;;;;;5060425;28;1526;-70
2022/04/12 16:40:42;;;;;;;;;;;;;;;;;;5060811;28;950;-70
2022/04/12 16:43:09;;;;;;;;;;;;;;;;;;5060294;28;1889;-70
2022/04/12 16:45:34;;;;;;;;;;;;;;;;;;5060993;28;1502;-70
2022/04/12 16:48:00;;;;;;;;;;;;;;;;;;5062723;28;886;-70
2022/04/12 16:50:25;;;;;;;;;;;;;;;;;;5064222;28;886;-70
2022/04/12 16:52:51;;;;;;;;;;;;;;;;;;5063710;28;1491;-70
2022/04/12 16:55:17;;;;;;;;;;;;;;;;;;5063986;28;823;-70
2022/04/12 16:57:43;;;;;;;;;;;;;;;;;;5063880;28;1432;-70
2022/04/12 17:00:08;;;;;;;;;;;;;;;;;;5064198;28;1013;-70
2022/04/12 17:02:35;;;;;;;;;;;;;;;;;;5063676;28;1212;-70
2022/04/12 17:05:00;;;;;;;;;;;;;;;;;;5063851;28;823;-70